Portada
METAR-TAF:

METAR-TAF

Aeroports :

Cozumel, Mèxic

latitud: 20-32N, longitud: 086-56W, altitud: 5 m

Observació

L'informe es va fer fa 28 minuts, a les 11:43 UTC
Vent 4 kt del Est/Sud-Est
Temperatura 22°C
Humitat 94%
Pressió 1015 hPa
Visibilitat: 11.3 km
Cel clar

METAR: MMCZ 181143Z 12004KT 7SM SKC 22/21 A2997 RMK SLP152 52003 905 SC

Hora: 07:11 (12:11 UTC)

Pronòstic

L'informe es va fer fa 1 hora i 51 minuts, a les 10:20 UTC
Pronòstic vàlid del 18 a les 12 UTC al 19 a les 18 UTC
Vent 4 kt del Sud-Est
Visibilitat: 10 km
Cel clar
A partir de les 18 a les 1800 UTC
Vent 10 kt del Est/Sud-Est
Visibilitat: 10 km
Núvols disperses a una alçada de 1500 ft
A partir de les 19 a les 0600 UTC
Vent 5 kt del Est
Visibilitat: 10 km
Núvols disperses a una alçada de 1500 ft
Evolucionant progressivament
l' 19 a les 11 UTC al 19 a les 13 UTC
Vent 4 kt del Est

TAF: MMCZ 181020Z 1812/1918 13004KT P6SM SKC FM181800 12010KT P6SM SCT015 FM190600 10005KT P6SM SCT015 BECMG 1911/1913 09004KT

Observacions i pronòstics meteorològics de més de 4000 aeroports (METAR i TAF).

Les estacions disponibles són els punts grocs i vermells al mapa.

Posi el ratolí al punt desitjat per veure el nom de l'estació.

Feu clic per veure les observacions i els pronòstics meteorològics.

Per canviar el mapa: feu clic els botons verds amb una creu de color negre per apropar; al botó verd amb un guió per allunyar la imatge; o en les fletxes verdes per a mapes adjacents.


METAR-TAF: